sensor_id;sensor_type;location;lat;lon;timestamp;temperature;humidity
52323;DHT22;38263;52.920;6.238;2023-07-09T00:02:12;23.40;99.90
52323;DHT22;38263;52.920;6.238;2023-07-09T00:04:37;23.10;99.90
52323;DHT22;38263;52.920;6.238;2023-07-09T00:07:04;23.20;99.90
52323;DHT22;38263;52.920;6.238;2023-07-09T00:09:30;23.00;99.90
52323;DHT22;38263;52.920;6.238;2023-07-09T00:11:56;22.90;99.90
52323;DHT22;38263;52.920;6.238;2023-07-09T00:14:22;23.20;99.90
52323;DHT22;38263;52.920;6.238;2023-07-09T00:16:47;23.10;99.90
52323;DHT22;38263;52.920;6.238;2023-07-09T00:19:16;23.00;99.90
52323;DHT22;38263;52.920;6.238;2023-07-09T00:21:43;22.80;99.90
52323;DHT22;38263;52.920;6.238;2023-07-09T00:24:11;22.60;99.90
52323;DHT22;38263;52.920;6.238;2023-07-09T00:26:38;22.90;99.90
52323;DHT22;38263;52.920;6.238;2023-07-09T00:29:04;22.60;99.90
52323;DHT22;38263;52.920;6.238;2023-07-09T00:31:30;22.70;99.90
52323;DHT22;38263;52.920;6.238;2023-07-09T00:33:56;22.70;99.90
52323;DHT22;38263;52.920;6.238;2023-07-09T00:36:31;22.70;99.90
52323;DHT22;38263;52.920;6.238;2023-07-09T00:38:57;22.40;99.90
52323;DHT22;38263;52.920;6.238;2023-07-09T00:41:26;22.50;99.90
52323;DHT22;38263;52.920;6.238;2023-07-09T00:43:53;22.50;99.90
52323;DHT22;38263;52.920;6.238;2023-07-09T00:48:57;22.10;99.90
52323;DHT22;38263;52.920;6.238;2023-07-09T00:51:24;22.20;99.90
52323;DHT22;38263;52.920;6.238;2023-07-09T00:53:54;22.20;99.90
52323;DHT22;38263;52.920;6.238;2023-07-09T00:56:33;22.20;99.90
52323;DHT22;38263;52.920;6.238;2023-07-09T00:59:06;22.10;99.90
52323;DHT22;38263;52.920;6.238;2023-07-09T01:01:33;21.90;99.90
52323;DHT22;38263;52.920;6.238;2023-07-09T01:04:01;21.70;99.90
52323;DHT22;38263;52.920;6.238;2023-07-09T01:06:39;21.50;99.90
52323;DHT22;38263;52.920;6.238;2023-07-09T01:09:07;21.70;99.90
52323;DHT22;38263;52.920;6.238;2023-07-09T01:11:33;21.00;99.90
52323;DHT22;38263;52.920;6.238;2023-07-09T01:14:02;20.80;99.90
52323;DHT22;38263;52.920;6.238;2023-07-09T01:16:31;20.70;99.90
52323;DHT22;38263;52.920;6.238;2023-07-09T01:18:57;20.50;99.90
52323;DHT22;38263;52.920;6.238;2023-07-09T01:21:23;20.10;99.90
52323;DHT22;38263;52.920;6.238;2023-07-09T01:23:50;20.20;99.90
52323;DHT22;38263;52.920;6.238;2023-07-09T01:26:22;20.00;99.90
52323;DHT22;38263;52.920;6.238;2023-07-09T01:28:52;19.80;99.90
52323;DHT22;38263;52.920;6.238;2023-07-09T01:31:18;19.70;99.90
52323;DHT22;38263;52.920;6.238;2023-07-09T01:33:46;19.90;99.90
52323;DHT22;38263;52.920;6.238;2023-07-09T01:36:21;17.80;99.90
52323;DHT22;38263;52.920;6.238;2023-07-09T01:38:51;20.00;99.90
52323;DHT22;38263;52.920;6.238;2023-07-09T01:41:18;19.80;99.90
52323;DHT22;38263;52.920;6.238;2023-07-09T01:43:45;19.70;99.90
52323;DHT22;38263;52.920;6.238;2023-07-09T01:46:12;19.70;99.90
52323;DHT22;38263;52.920;6.238;2023-07-09T01:48:42;19.50;99.90
52323;DHT22;38263;52.920;6.238;2023-07-09T01:51:09;19.50;99.90
52323;DHT22;38263;52.920;6.238;2023-07-09T01:53:36;19.70;99.90
52323;DHT22;38263;52.920;6.238;2023-07-09T01:56:03;19.60;99.90
52323;DHT22;38263;52.920;6.238;2023-07-09T01:58:29;19.30;99.90
52323;DHT22;38263;52.920;6.238;2023-07-09T02:00:57;19.40;99.90
52323;DHT22;38263;52.920;6.238;2023-07-09T02:03:23;19.40;99.90
52323;DHT22;38263;52.920;6.238;2023-07-09T02:05:53;19.70;99.90
52323;DHT22;38263;52.920;6.238;2023-07-09T02:08:19;19.30;99.90
52323;DHT22;38263;52.920;6.238;2023-07-09T02:10:47;19.50;99.90
52323;DHT22;38263;52.920;6.238;2023-07-09T02:13:13;19.30;99.90
52323;DHT22;38263;52.920;6.238;2023-07-09T02:15:39;19.60;99.90
52323;DHT22;38263;52.920;6.238;2023-07-09T02:18:09;19.60;99.90
52323;DHT22;38263;52.920;6.238;2023-07-09T02:20:34;19.70;99.90
52323;DHT22;38263;52.920;6.238;2023-07-09T02:23:00;19.60;99.90
52323;DHT22;38263;52.920;6.238;2023-07-09T02:25:26;19.70;99.90
52323;DHT22;38263;52.920;6.238;2023-07-09T02:27:51;19.60;99.90
52323;DHT22;38263;52.920;6.238;2023-07-09T02:30:17;19.40;99.90
52323;DHT22;38263;52.920;6.238;2023-07-09T02:32:42;19.60;99.90
52323;DHT22;38263;52.920;6.238;2023-07-09T02:37:34;19.20;99.90
52323;DHT22;38263;52.920;6.238;2023-07-09T02:39:59;19.10;99.90
52323;DHT22;38263;52.920;6.238;2023-07-09T02:42:25;19.20;99.90
52323;DHT22;38263;52.920;6.238;2023-07-09T02:44:51;19.10;99.90
52323;DHT22;38263;52.920;6.238;2023-07-09T02:47:16;19.10;99.90
52323;DHT22;38263;52.920;6.238;2023-07-09T02:49:42;19.20;99.90
52323;DHT22;38263;52.920;6.238;2023-07-09T02:52:08;19.00;99.90
52323;DHT22;38263;52.920;6.238;2023-07-09T02:54:34;19.10;99.90
52323;DHT22;38263;52.920;6.238;2023-07-09T02:57:00;19.10;99.90
52323;DHT22;38263;52.920;6.238;2023-07-09T02:59:25;19.10;99.90
52323;DHT22;38263;52.920;6.238;2023-07-09T03:01:55;19.20;99.90
52323;DHT22;38263;52.920;6.238;2023-07-09T03:04:20;19.20;99.90
52323;DHT22;38263;52.920;6.238;2023-07-09T03:09:12;19.20;99.90
52323;DHT22;38263;52.920;6.238;2023-07-09T03:11:38;18.90;99.90
52323;DHT22;38263;52.920;6.238;2023-07-09T03:14:04;19.00;99.90
52323;DHT22;38263;52.920;6.238;2023-07-09T03:16:32;19.00;99.90
52323;DHT22;38263;52.920;6.238;2023-07-09T03:18:58;19.40;99.90
52323;DHT22;38263;52.920;6.238;2023-07-09T03:21:25;19.70;99.90
52323;DHT22;38263;52.920;6.238;2023-07-09T03:23:51;19.70;99.90
52323;DHT22;38263;52.920;6.238;2023-07-09T03:26:17;20.00;99.90
52323;DHT22;38263;52.920;6.238;2023-07-09T03:28:42;19.90;99.90
52323;DHT22;38263;52.920;6.238;2023-07-09T03:31:08;20.00;99.90
52323;DHT22;38263;52.920;6.238;2023-07-09T03:33:34;20.10;99.90
52323;DHT22;38263;52.920;6.238;2023-07-09T03:40:52;20.20;99.90
52323;DHT22;38263;52.920;6.238;2023-07-09T03:43:19;20.30;99.90
52323;DHT22;38263;52.920;6.238;2023-07-09T03:53:03;20.20;99.90
52323;DHT22;38263;52.920;6.238;2023-07-09T03:57:55;20.00;99.90
52323;DHT22;38263;52.920;6.238;2023-07-09T04:05:13;20.30;99.90
52323;DHT22;38263;52.920;6.238;2023-07-09T04:07:38;20.30;99.90
52323;DHT22;38263;52.920;6.238;2023-07-09T04:10:05;20.30;99.90
52323;DHT22;38263;52.920;6.238;2023-07-09T04:12:31;20.40;99.90
52323;DHT22;38263;52.920;6.238;2023-07-09T04:14:57;20.50;99.90
52323;DHT22;38263;52.920;6.238;2023-07-09T04:19:53;20.30;99.90
52323;DHT22;38263;52.920;6.238;2023-07-09T04:22:18;20.30;99.90
52323;DHT22;38263;52.920;6.238;2023-07-09T04:24:44;20.60;99.90
52323;DHT22;38263;52.920;6.238;2023-07-09T04:27:11;20.70;99.90
52323;DHT22;38263;52.920;6.238;2023-07-09T04:29:36;20.60;99.90
52323;DHT22;38263;52.920;6.238;2023-07-09T04:32:04;20.70;99.90
52323;DHT22;38263;52.920;6.238;2023-07-09T04:34:30;20.70;99.90
52323;DHT22;38263;52.920;6.238;2023-07-09T04:36:55;20.80;99.90
52323;DHT22;38263;52.920;6.238;2023-07-09T04:39:21;20.70;99.90
52323;DHT22;38263;52.920;6.238;2023-07-09T04:41:47;20.90;99.90
52323;DHT22;38263;52.920;6.238;2023-07-09T04:44:12;20.90;99.90
52323;DHT22;38263;52.920;6.238;2023-07-09T04:46:38;20.90;99.90
52323;DHT22;38263;52.920;6.238;2023-07-09T04:49:04;21.00;99.90
52323;DHT22;38263;52.920;6.238;2023-07-09T04:51:30;21.10;99.90
52323;DHT22;38263;52.920;6.238;2023-07-09T04:53:55;21.20;99.90
52323;DHT22;38263;52.920;6.238;2023-07-09T04:56:21;21.40;99.90
52323;DHT22;38263;52.920;6.238;2023-07-09T04:58:46;21.50;99.90
52323;DHT22;38263;52.920;6.238;2023-07-09T05:01:12;21.70;99.90
52323;DHT22;38263;52.920;6.238;2023-07-09T05:03:38;21.80;99.90
52323;DHT22;38263;52.920;6.238;2023-07-09T05:06:04;21.80;99.90
52323;DHT22;38263;52.920;6.238;2023-07-09T05:08:30;21.80;99.90
52323;DHT22;38263;52.920;6.238;2023-07-09T05:10:57;21.50;99.90
52323;DHT22;38263;52.920;6.238;2023-07-09T05:13:23;21.90;99.90
52323;DHT22;38263;52.920;6.238;2023-07-09T05:15:49;21.60;99.90
52323;DHT22;38263;52.920;6.238;2023-07-09T05:18:16;21.80;99.90
52323;DHT22;38263;52.920;6.238;2023-07-09T05:20:41;21.70;99.90
52323;DHT22;38263;52.920;6.238;2023-07-09T05:23:10;21.60;99.90
52323;DHT22;38263;52.920;6.238;2023-07-09T05:25:36;21.60;99.90
52323;DHT22;38263;52.920;6.238;2023-07-09T05:28:03;21.50;99.90
52323;DHT22;38263;52.920;6.238;2023-07-09T05:30:29;21.50;99.90
52323;DHT22;38263;52.920;6.238;2023-07-09T05:32:54;21.60;99.90
52323;DHT22;38263;52.920;6.238;2023-07-09T05:35:23;21.80;99.90
52323;DHT22;38263;52.920;6.238;2023-07-09T05:37:51;21.50;99.90
52323;DHT22;38263;52.920;6.238;2023-07-09T05:40:16;21.60;99.90
52323;DHT22;38263;52.920;6.238;2023-07-09T05:42:42;21.60;99.90
52323;DHT22;38263;52.920;6.238;2023-07-09T05:45:08;21.60;99.90
52323;DHT22;38263;52.920;6.238;2023-07-09T05:47:33;21.70;99.90
52323;DHT22;38263;52.920;6.238;2023-07-09T05:49:59;21.80;99.90
52323;DHT22;38263;52.920;6.238;2023-07-09T05:52:25;21.90;99.90
52323;DHT22;38263;52.920;6.238;2023-07-09T05:54:51;21.90;99.90
52323;DHT22;38263;52.920;6.238;2023-07-09T05:57:17;22.00;99.90
52323;DHT22;38263;52.920;6.238;2023-07-09T05:59:43;22.40;99.90
52323;DHT22;38263;52.920;6.238;2023-07-09T06:02:13;22.70;99.90
52323;DHT22;38263;52.920;6.238;2023-07-09T06:04:39;23.00;99.90
52323;DHT22;38263;52.920;6.238;2023-07-09T06:07:05;23.00;99.90
52323;DHT22;38263;52.920;6.238;2023-07-09T06:09:30;23.50;99.90
52323;DHT22;38263;52.920;6.238;2023-07-09T06:11:57;23.90;99.90
52323;DHT22;38263;52.920;6.238;2023-07-09T06:14:23;25.60;99.90
52323;DHT22;38263;52.920;6.238;2023-07-09T06:16:49;24.30;99.90
52323;DHT22;38263;52.920;6.238;2023-07-09T06:19:15;24.90;99.90
52323;DHT22;38263;52.920;6.238;2023-07-09T06:21:40;25.20;99.90
52323;DHT22;38263;52.920;6.238;2023-07-09T06:24:07;25.60;99.90
52323;DHT22;38263;52.920;6.238;2023-07-09T06:26:33;25.60;99.90
52323;DHT22;38263;52.920;6.238;2023-07-09T06:28:59;26.30;99.90
52323;DHT22;38263;52.920;6.238;2023-07-09T06:31:24;26.80;99.90
52323;DHT22;38263;52.920;6.238;2023-07-09T06:33:50;26.70;99.90
52323;DHT22;38263;52.920;6.238;2023-07-09T06:36:16;26.50;99.90
52323;DHT22;38263;52.920;6.238;2023-07-09T06:38:42;28.00;99.90
52323;DHT22;38263;52.920;6.238;2023-07-09T06:41:07;26.40;99.90
52323;DHT22;38263;52.920;6.238;2023-07-09T06:43:34;26.30;99.90
52323;DHT22;38263;52.920;6.238;2023-07-09T06:46:01;26.10;99.90
52323;DHT22;38263;52.920;6.238;2023-07-09T06:48:28;25.80;99.90
52323;DHT22;38263;52.920;6.238;2023-07-09T06:50:54;25.90;99.90
52323;DHT22;38263;52.920;6.238;2023-07-09T06:53:21;26.60;99.90
52323;DHT22;38263;52.920;6.238;2023-07-09T06:55:47;25.30;99.90
52323;DHT22;38263;52.920;6.238;2023-07-09T06:58:16;25.30;99.90
52323;DHT22;38263;52.920;6.238;2023-07-09T07:00:42;25.10;99.90
52323;DHT22;38263;52.920;6.238;2023-07-09T07:03:09;25.20;99.90
52323;DHT22;38263;52.920;6.238;2023-07-09T07:05:35;25.00;99.90
52323;DHT22;38263;52.920;6.238;2023-07-09T07:08:02;25.10;99.90
52323;DHT22;38263;52.920;6.238;2023-07-09T07:10:28;25.40;99.90
52323;DHT22;38263;52.920;6.238;2023-07-09T07:12:54;25.20;99.90
52323;DHT22;38263;52.920;6.238;2023-07-09T07:15:20;25.10;99.90
52323;DHT22;38263;52.920;6.238;2023-07-09T07:17:46;25.00;99.90
52323;DHT22;38263;52.920;6.238;2023-07-09T07:20:12;25.20;99.90
52323;DHT22;38263;52.920;6.238;2023-07-09T07:22:39;25.20;99.90
52323;DHT22;38263;52.920;6.238;2023-07-09T07:25:06;25.20;99.90
52323;DHT22;38263;52.920;6.238;2023-07-09T07:27:32;25.30;99.90
52323;DHT22;38263;52.920;6.238;2023-07-09T07:29:57;25.40;99.90
52323;DHT22;38263;52.920;6.238;2023-07-09T07:32:24;26.70;99.90
52323;DHT22;38263;52.920;6.238;2023-07-09T07:34:49;25.70;99.90
52323;DHT22;38263;52.920;6.238;2023-07-09T07:37:17;25.80;99.90
52323;DHT22;38263;52.920;6.238;2023-07-09T07:39:44;25.70;99.90
52323;DHT22;38263;52.920;6.238;2023-07-09T07:42:10;25.70;99.90
52323;DHT22;38263;52.920;6.238;2023-07-09T07:44:36;25.80;99.90
52323;DHT22;38263;52.920;6.238;2023-07-09T07:47:01;27.10;99.90
52323;DHT22;38263;52.920;6.238;2023-07-09T07:49:27;25.70;99.90
52323;DHT22;38263;52.920;6.238;2023-07-09T07:51:52;25.90;99.90
52323;DHT22;38263;52.920;6.238;2023-07-09T07:54:18;26.10;99.90
52323;DHT22;38263;52.920;6.238;2023-07-09T07:56:43;26.30;99.90
52323;DHT22;38263;52.920;6.238;2023-07-09T07:59:09;26.00;99.90
52323;DHT22;38263;52.920;6.238;2023-07-09T08:01:34;26.20;99.90
52323;DHT22;38263;52.920;6.238;2023-07-09T08:04:02;26.10;99.90
52323;DHT22;38263;52.920;6.238;2023-07-09T08:06:28;26.20;99.90
52323;DHT22;38263;52.920;6.238;2023-07-09T08:08:53;26.00;99.90
52323;DHT22;38263;52.920;6.238;2023-07-09T08:11:19;26.30;99.90
52323;DHT22;38263;52.920;6.238;2023-07-09T08:13:45;26.30;99.90
52323;DHT22;38263;52.920;6.238;2023-07-09T08:16:10;26.10;99.90
52323;DHT22;38263;52.920;6.238;2023-07-09T08:18:37;26.30;99.90
52323;DHT22;38263;52.920;6.238;2023-07-09T08:21:03;26.40;99.90
52323;DHT22;38263;52.920;6.238;2023-07-09T08:23:29;26.20;99.90
52323;DHT22;38263;52.920;6.238;2023-07-09T08:25:56;26.40;99.90
52323;DHT22;38263;52.920;6.238;2023-07-09T08:28:22;28.20;99.90
52323;DHT22;38263;52.920;6.238;2023-07-09T08:30:51;26.60;99.90
52323;DHT22;38263;52.920;6.238;2023-07-09T08:33:16;28.30;99.90
52323;DHT22;38263;52.920;6.238;2023-07-09T08:35:43;26.70;99.90
52323;DHT22;38263;52.920;6.238;2023-07-09T08:38:09;27.90;99.90
52323;DHT22;38263;52.920;6.238;2023-07-09T08:40:39;26.80;99.90
52323;DHT22;38263;52.920;6.238;2023-07-09T08:43:30;27.00;99.90
52323;DHT22;38263;52.920;6.238;2023-07-09T08:48:34;27.10;99.90
52323;DHT22;38263;52.920;6.238;2023-07-09T08:51:15;27.10;99.90
52323;DHT22;38263;52.920;6.238;2023-07-09T08:53:59;27.20;99.90
52323;DHT22;38263;52.920;6.238;2023-07-09T08:56:27;27.20;99.90
52323;DHT22;38263;52.920;6.238;2023-07-09T08:58:55;27.10;99.90
52323;DHT22;38263;52.920;6.238;2023-07-09T09:01:29;27.60;99.90
52323;DHT22;38263;52.920;6.238;2023-07-09T09:04:00;27.30;99.90
52323;DHT22;38263;52.920;6.238;2023-07-09T09:06:29;27.40;99.90
52323;DHT22;38263;52.920;6.238;2023-07-09T09:14:02;27.40;99.90
52323;DHT22;38263;52.920;6.238;2023-07-09T09:16:33;27.60;99.90
52323;DHT22;38263;52.920;6.238;2023-07-09T09:19:00;29.30;99.90
52323;DHT22;38263;52.920;6.238;2023-07-09T09:21:35;27.50;99.90
52323;DHT22;38263;52.920;6.238;2023-07-09T09:24:09;27.70;99.90
52323;DHT22;38263;52.920;6.238;2023-07-09T09:26:39;28.90;99.90
52323;DHT22;38263;52.920;6.238;2023-07-09T09:29:11;27.80;99.90
52323;DHT22;38263;52.920;6.238;2023-07-09T09:31:37;27.60;99.90
52323;DHT22;38263;52.920;6.238;2023-07-09T09:34:03;27.60;99.90
52323;DHT22;38263;52.920;6.238;2023-07-09T09:36:30;27.90;99.90
52323;DHT22;38263;52.920;6.238;2023-07-09T09:39:01;28.00;99.90
52323;DHT22;38263;52.920;6.238;2023-07-09T09:41:30;29.00;99.90
52323;DHT22;38263;52.920;6.238;2023-07-09T09:43:57;29.40;99.90
52323;DHT22;38263;52.920;6.238;2023-07-09T09:46:25;28.10;99.90
52323;DHT22;38263;52.920;6.238;2023-07-09T09:48:58;28.10;99.90
52323;DHT22;38263;52.920;6.238;2023-07-09T09:51:24;28.50;99.90
52323;DHT22;38263;52.920;6.238;2023-07-09T09:53:52;28.20;99.90
52323;DHT22;38263;52.920;6.238;2023-07-09T09:56:30;28.60;99.90
52323;DHT22;38263;52.920;6.238;2023-07-09T09:58:57;29.70;99.90
52323;DHT22;38263;52.920;6.238;2023-07-09T10:01:31;29.90;99.90
52323;DHT22;38263;52.920;6.238;2023-07-09T10:03:59;28.60;99.90
52323;DHT22;38263;52.920;6.238;2023-07-09T10:06:35;28.50;99.90
52323;DHT22;38263;52.920;6.238;2023-07-09T10:09:27;28.50;99.90
52323;DHT22;38263;52.920;6.238;2023-07-09T10:14:49;28.60;99.90
52323;DHT22;38263;52.920;6.238;2023-07-09T10:30:49;29.10;99.90
52323;DHT22;38263;52.920;6.238;2023-07-09T10:41:12;29.20;99.90
52323;DHT22;38263;52.920;6.238;2023-07-09T10:43:46;29.40;99.90
52323;DHT22;38263;52.920;6.238;2023-07-09T10:46:15;30.50;99.90
52323;DHT22;38263;52.920;6.238;2023-07-09T10:48:44;29.30;99.90
52323;DHT22;38263;52.920;6.238;2023-07-09T10:51:32;31.30;99.90
52323;DHT22;38263;52.920;6.238;2023-07-09T10:54:02;31.30;99.90
52323;DHT22;38263;52.920;6.238;2023-07-09T10:56:33;29.60;99.90
52323;DHT22;38263;52.920;6.238;2023-07-09T10:59:26;29.50;99.90
52323;DHT22;38263;52.920;6.238;2023-07-09T11:04:50;29.90;99.90
52323;DHT22;38263;52.920;6.238;2023-07-09T11:07:26;29.90;99.90
52323;DHT22;38263;52.920;6.238;2023-07-09T11:09:57;29.70;99.90
52323;DHT22;38263;52.920;6.238;2023-07-09T11:12:36;29.90;99.90
52323;DHT22;38263;52.920;6.238;2023-07-09T11:15:17;30.00;99.90
52323;DHT22;38263;52.920;6.238;2023-07-09T11:17:46;29.80;99.90
52323;DHT22;38263;52.920;6.238;2023-07-09T11:20:36;30.80;99.90
52323;DHT22;38263;52.920;6.238;2023-07-09T11:23:22;31.10;99.90
52323;DHT22;38263;52.920;6.238;2023-07-09T11:26:15;29.70;99.90
52323;DHT22;38263;52.920;6.238;2023-07-09T11:28:54;30.30;99.90
52323;DHT22;38263;52.920;6.238;2023-07-09T11:31:38;30.10;99.90
52323;DHT22;38263;52.920;6.238;2023-07-09T11:34:10;30.20;99.90
52323;DHT22;38263;52.920;6.238;2023-07-09T11:36:57;30.70;99.90
52323;DHT22;38263;52.920;6.238;2023-07-09T11:42:01;30.30;99.90
52323;DHT22;38263;52.920;6.238;2023-07-09T11:44:30;30.20;99.90
52323;DHT22;38263;52.920;6.238;2023-07-09T11:52:39;30.60;99.90
52323;DHT22;38263;52.920;6.238;2023-07-09T11:55:38;31.80;99.90
52323;DHT22;38263;52.920;6.238;2023-07-09T11:58:05;30.60;99.90
52323;DHT22;38263;52.920;6.238;2023-07-09T12:00:44;30.50;99.90
52323;DHT22;38263;52.920;6.238;2023-07-09T12:05:55;30.50;99.90
52323;DHT22;38263;52.920;6.238;2023-07-09T12:08:32;30.50;99.90
52323;DHT22;38263;52.920;6.238;2023-07-09T12:10:59;30.80;99.90
52323;DHT22;38263;52.920;6.238;2023-07-09T12:13:25;31.80;99.90
52323;DHT22;38263;52.920;6.238;2023-07-09T12:15:50;30.90;99.90
52323;DHT22;38263;52.920;6.238;2023-07-09T12:18:16;30.80;99.90
52323;DHT22;38263;52.920;6.238;2023-07-09T12:20:53;31.50;99.90
52323;DHT22;38263;52.920;6.238;2023-07-09T12:25:51;31.10;99.90
52323;DHT22;38263;52.920;6.238;2023-07-09T12:28:17;31.10;99.90
52323;DHT22;38263;52.920;6.238;2023-07-09T12:30:48;31.10;99.90
52323;DHT22;38263;52.920;6.238;2023-07-09T12:33:18;31.00;99.90
52323;DHT22;38263;52.920;6.238;2023-07-09T12:35:45;30.90;99.90
52323;DHT22;38263;52.920;6.238;2023-07-09T12:38:20;32.00;99.90
52323;DHT22;38263;52.920;6.238;2023-07-09T12:40:48;31.00;99.90
52323;DHT22;38263;52.920;6.238;2023-07-09T12:43:15;31.10;99.90
52323;DHT22;38263;52.920;6.238;2023-07-09T12:45:42;32.40;99.90
52323;DHT22;38263;52.920;6.238;2023-07-09T12:48:10;31.30;99.90
52323;DHT22;38263;52.920;6.238;2023-07-09T12:50:38;32.90;99.90
52323;DHT22;38263;52.920;6.238;2023-07-09T12:53:15;32.00;99.90
52323;DHT22;38263;52.920;6.238;2023-07-09T12:55:44;31.40;99.90
52323;DHT22;38263;52.920;6.238;2023-07-09T12:58:11;31.30;99.90
52323;DHT22;38263;52.920;6.238;2023-07-09T13:00:39;31.50;99.90
52323;DHT22;38263;52.920;6.238;2023-07-09T13:03:13;32.80;99.90
52323;DHT22;38263;52.920;6.238;2023-07-09T13:08:19;31.80;99.90
52323;DHT22;38263;52.920;6.238;2023-07-09T13:10:44;31.30;99.90
52323;DHT22;38263;52.920;6.238;2023-07-09T13:13:12;32.90;99.90
52323;DHT22;38263;52.920;6.238;2023-07-09T13:15:40;31.30;99.90
52323;DHT22;38263;52.920;6.238;2023-07-09T13:18:10;32.70;99.90
52323;DHT22;38263;52.920;6.238;2023-07-09T13:20:44;31.90;99.90
52323;DHT22;38263;52.920;6.238;2023-07-09T13:23:18;31.00;99.90
52323;DHT22;38263;52.920;6.238;2023-07-09T13:25:44;31.00;99.90
52323;DHT22;38263;52.920;6.238;2023-07-09T13:28:21;30.90;99.90
52323;DHT22;38263;52.920;6.238;2023-07-09T13:30:50;31.80;99.90
52323;DHT22;38263;52.920;6.238;2023-07-09T13:33:17;32.30;99.90
52323;DHT22;38263;52.920;6.238;2023-07-09T13:35:44;31.70;99.90
52323;DHT22;38263;52.920;6.238;2023-07-09T13:38:17;31.70;99.90
52323;DHT22;38263;52.920;6.238;2023-07-09T13:40:46;32.90;99.90
52323;DHT22;38263;52.920;6.238;2023-07-09T13:43:29;30.60;99.90
52323;DHT22;38263;52.920;6.238;2023-07-09T13:45:55;30.90;99.90
52323;DHT22;38263;52.920;6.238;2023-07-09T13:48:23;32.40;99.90
52323;DHT22;38263;52.920;6.238;2023-07-09T13:50:50;31.10;99.90
52323;DHT22;38263;52.920;6.238;2023-07-09T13:53:26;32.60;99.90
52323;DHT22;38263;52.920;6.238;2023-07-09T13:55:53;31.40;99.90
52323;DHT22;38263;52.920;6.238;2023-07-09T13:58:20;31.10;99.90
52323;DHT22;38263;52.920;6.238;2023-07-09T14:00:47;31.30;99.90
52323;DHT22;38263;52.920;6.238;2023-07-09T14:03:25;31.10;99.90
52323;DHT22;38263;52.920;6.238;2023-07-09T14:05:52;31.10;99.90
52323;DHT22;38263;52.920;6.238;2023-07-09T14:08:18;32.50;99.90
52323;DHT22;38263;52.920;6.238;2023-07-09T14:10:46;31.10;99.90
52323;DHT22;38263;52.920;6.238;2023-07-09T14:13:15;31.20;99.90
52323;DHT22;38263;52.920;6.238;2023-07-09T14:15:41;32.20;99.90
52323;DHT22;38263;52.920;6.238;2023-07-09T14:18:19;31.80;99.90
52323;DHT22;38263;52.920;6.238;2023-07-09T14:20:46;30.90;99.90
52323;DHT22;38263;52.920;6.238;2023-07-09T14:23:13;32.50;99.90
52323;DHT22;38263;52.920;6.238;2023-07-09T14:25:39;32.30;99.90
52323;DHT22;38263;52.920;6.238;2023-07-09T14:28:14;31.40;99.90
52323;DHT22;38263;52.920;6.238;2023-07-09T14:30:40;30.80;99.90
52323;DHT22;38263;52.920;6.238;2023-07-09T14:33:18;31.70;99.90
52323;DHT22;38263;52.920;6.238;2023-07-09T14:35:45;30.20;99.90
52323;DHT22;38263;52.920;6.238;2023-07-09T14:38:22;31.30;99.90
52323;DHT22;38263;52.920;6.238;2023-07-09T14:40:51;29.80;99.90
52323;DHT22;38263;52.920;6.238;2023-07-09T14:43:16;29.70;99.90
52323;DHT22;38263;52.920;6.238;2023-07-09T14:45:42;30.60;99.90
52323;DHT22;38263;52.920;6.238;2023-07-09T14:48:10;29.60;99.90
52323;DHT22;38263;52.920;6.238;2023-07-09T14:50:36;29.30;99.90
52323;DHT22;38263;52.920;6.238;2023-07-09T14:53:02;30.10;99.90
52323;DHT22;38263;52.920;6.238;2023-07-09T14:55:27;29.00;99.90
52323;DHT22;38263;52.920;6.238;2023-07-09T14:57:54;28.30;99.90
52323;DHT22;38263;52.920;6.238;2023-07-09T15:00:21;29.50;99.90
52323;DHT22;38263;52.920;6.238;2023-07-09T15:02:49;27.70;99.90
52323;DHT22;38263;52.920;6.238;2023-07-09T15:05:23;26.90;99.90
52323;DHT22;38263;52.920;6.238;2023-07-09T15:07:49;26.10;99.90
52323;DHT22;38263;52.920;6.238;2023-07-09T15:10:21;25.60;99.90
52323;DHT22;38263;52.920;6.238;2023-07-09T15:12:48;25.20;99.90
52323;DHT22;38263;52.920;6.238;2023-07-09T15:15:17;24.70;99.90
52323;DHT22;38263;52.920;6.238;2023-07-09T15:17:44;24.40;99.90
52323;DHT22;38263;52.920;6.238;2023-07-09T15:20:14;24.10;99.90
52323;DHT22;38263;52.920;6.238;2023-07-09T15:22:40;23.80;99.90
52323;DHT22;38263;52.920;6.238;2023-07-09T15:25:19;23.80;99.90
52323;DHT22;38263;52.920;6.238;2023-07-09T15:27:45;23.60;99.90
52323;DHT22;38263;52.920;6.238;2023-07-09T15:30:20;23.40;99.90
52323;DHT22;38263;52.920;6.238;2023-07-09T15:32:47;23.30;99.90
52323;DHT22;38263;52.920;6.238;2023-07-09T15:35:14;23.50;99.90
52323;DHT22;38263;52.920;6.238;2023-07-09T15:37:40;22.90;99.90
52323;DHT22;38263;52.920;6.238;2023-07-09T15:40:32;23.10;99.90
52323;DHT22;38263;52.920;6.238;2023-07-09T15:43:04;23.00;99.90
52323;DHT22;38263;52.920;6.238;2023-07-09T15:45:30;23.10;99.90
52323;DHT22;38263;52.920;6.238;2023-07-09T15:47:56;23.10;99.90
52323;DHT22;38263;52.920;6.238;2023-07-09T15:50:24;23.10;99.90
52323;DHT22;38263;52.920;6.238;2023-07-09T15:52:51;23.00;99.90
52323;DHT22;38263;52.920;6.238;2023-07-09T15:55:19;23.00;99.90
52323;DHT22;38263;52.920;6.238;2023-07-09T15:57:47;22.90;99.90
52323;DHT22;38263;52.920;6.238;2023-07-09T16:02:42;22.60;99.90
52323;DHT22;38263;52.920;6.238;2023-07-09T16:05:24;22.70;99.90
52323;DHT22;38263;52.920;6.238;2023-07-09T16:07:51;22.70;99.90
52323;DHT22;38263;52.920;6.238;2023-07-09T16:10:18;22.60;99.90
52323;DHT22;38263;52.920;6.238;2023-07-09T16:12:46;22.60;99.90
52323;DHT22;38263;52.920;6.238;2023-07-09T16:15:14;22.50;99.90
52323;DHT22;38263;52.920;6.238;2023-07-09T16:17:44;22.20;99.90
52323;DHT22;38263;52.920;6.238;2023-07-09T16:20:11;22.30;99.90
52323;DHT22;38263;52.920;6.238;2023-07-09T16:22:39;22.50;99.90
52323;DHT22;38263;52.920;6.238;2023-07-09T16:25:33;22.60;99.90
52323;DHT22;38263;52.920;6.238;2023-07-09T16:28:00;22.50;99.90
52323;DHT22;38263;52.920;6.238;2023-07-09T16:30:28;22.20;99.90
52323;DHT22;38263;52.920;6.238;2023-07-09T16:33:01;22.40;99.90
52323;DHT22;38263;52.920;6.238;2023-07-09T16:35:28;22.40;99.90
52323;DHT22;38263;52.920;6.238;2023-07-09T16:37:55;22.10;99.90
52323;DHT22;38263;52.920;6.238;2023-07-09T16:40:23;22.30;99.90
52323;DHT22;38263;52.920;6.238;2023-07-09T16:42:50;22.90;99.90
52323;DHT22;38263;52.920;6.238;2023-07-09T16:45:17;23.20;99.90
52323;DHT22;38263;52.920;6.238;2023-07-09T16:47:44;21.60;99.90
52323;DHT22;38263;52.920;6.238;2023-07-09T16:50:15;21.50;99.90
52323;DHT22;38263;52.920;6.238;2023-07-09T16:52:42;21.60;99.90
52323;DHT22;38263;52.920;6.238;2023-07-09T16:55:16;22.20;99.90
52323;DHT22;38263;52.920;6.238;2023-07-09T16:57:43;21.80;99.90
52323;DHT22;38263;52.920;6.238;2023-07-09T17:00:21;21.80;99.90
52323;DHT22;38263;52.920;6.238;2023-07-09T17:02:48;21.60;99.90